sensor_id;sensor_type;location;lat;lon;timestamp;P1;durP1;ratioP1;P2;durP2;ratioP2
31676;SDS011;18385;51.572;6.578;2023-05-07T00:00:01;9.93;;;7.22;;
31676;SDS011;18385;51.572;6.578;2023-05-07T00:02:26;9.05;;;6.97;;
31676;SDS011;18385;51.572;6.578;2023-05-07T00:04:52;10.43;;;7.78;;
31676;SDS011;18385;51.572;6.578;2023-05-07T00:07:18;9.82;;;7.05;;
31676;SDS011;18385;51.572;6.578;2023-05-07T00:09:43;14.77;;;7.72;;
31676;SDS011;18385;51.572;6.578;2023-05-07T00:12:09;10.77;;;8.27;;
31676;SDS011;18385;51.572;6.578;2023-05-07T00:14:35;12.25;;;7.07;;
31676;SDS011;18385;51.572;6.578;2023-05-07T00:17:00;9.68;;;7.32;;
31676;SDS011;18385;51.572;6.578;2023-05-07T00:19:26;11.15;;;8.15;;
31676;SDS011;18385;51.572;6.578;2023-05-07T00:21:52;10.00;;;6.93;;
31676;SDS011;18385;51.572;6.578;2023-05-07T00:24:21;13.57;;;7.95;;
31676;SDS011;18385;51.572;6.578;2023-05-07T00:26:47;9.35;;;7.60;;
31676;SDS011;18385;51.572;6.578;2023-05-07T00:29:12;9.63;;;7.63;;
31676;SDS011;18385;51.572;6.578;2023-05-07T00:31:38;10.07;;;6.78;;
31676;SDS011;18385;51.572;6.578;2023-05-07T00:34:04;11.32;;;7.57;;
31676;SDS011;18385;51.572;6.578;2023-05-07T00:36:29;11.25;;;8.35;;
31676;SDS011;18385;51.572;6.578;2023-05-07T00:38:56;15.68;;;9.13;;
31676;SDS011;18385;51.572;6.578;2023-05-07T00:41:23;10.63;;;7.28;;
31676;SDS011;18385;51.572;6.578;2023-05-07T00:43:49;9.70;;;7.40;;
31676;SDS011;18385;51.572;6.578;2023-05-07T00:46:16;11.13;;;7.90;;
31676;SDS011;18385;51.572;6.578;2023-05-07T00:48:42;9.68;;;7.55;;
31676;SDS011;18385;51.572;6.578;2023-05-07T00:51:09;14.82;;;9.10;;
31676;SDS011;18385;51.572;6.578;2023-05-07T00:53:36;12.18;;;8.10;;
31676;SDS011;18385;51.572;6.578;2023-05-07T00:56:02;8.65;;;6.95;;
31676;SDS011;18385;51.572;6.578;2023-05-07T00:58:28;10.45;;;7.43;;
31676;SDS011;18385;51.572;6.578;2023-05-07T01:00:55;14.43;;;8.73;;
31676;SDS011;18385;51.572;6.578;2023-05-07T01:03:21;8.45;;;6.90;;
31676;SDS011;18385;51.572;6.578;2023-05-07T01:05:46;12.45;;;7.93;;
31676;SDS011;18385;51.572;6.578;2023-05-07T01:08:13;10.35;;;7.80;;
31676;SDS011;18385;51.572;6.578;2023-05-07T01:10:40;12.25;;;8.75;;
31676;SDS011;18385;51.572;6.578;2023-05-07T01:13:08;15.02;;;8.50;;
31676;SDS011;18385;51.572;6.578;2023-05-07T01:15:35;15.70;;;9.02;;
31676;SDS011;18385;51.572;6.578;2023-05-07T01:18:01;10.65;;;8.07;;
31676;SDS011;18385;51.572;6.578;2023-05-07T01:20:32;10.98;;;8.05;;
31676;SDS011;18385;51.572;6.578;2023-05-07T01:22:58;10.50;;;7.82;;
31676;SDS011;18385;51.572;6.578;2023-05-07T01:25:26;10.95;;;7.93;;
31676;SDS011;18385;51.572;6.578;2023-05-07T01:27:56;10.25;;;7.93;;
31676;SDS011;18385;51.572;6.578;2023-05-07T01:30:26;10.75;;;7.90;;
31676;SDS011;18385;51.572;6.578;2023-05-07T01:32:58;12.18;;;8.63;;
31676;SDS011;18385;51.572;6.578;2023-05-07T01:35:30;12.13;;;8.35;;
31676;SDS011;18385;51.572;6.578;2023-05-07T01:38:01;10.48;;;7.65;;
31676;SDS011;18385;51.572;6.578;2023-05-07T01:40:29;11.15;;;8.82;;
31676;SDS011;18385;51.572;6.578;2023-05-07T01:42:55;11.73;;;7.50;;
31676;SDS011;18385;51.572;6.578;2023-05-07T01:45:21;12.32;;;8.45;;
31676;SDS011;18385;51.572;6.578;2023-05-07T01:47:49;14.35;;;9.38;;
31676;SDS011;18385;51.572;6.578;2023-05-07T01:50:15;12.98;;;9.23;;
31676;SDS011;18385;51.572;6.578;2023-05-07T01:52:43;13.77;;;9.00;;
31676;SDS011;18385;51.572;6.578;2023-05-07T01:55:09;10.45;;;8.02;;
31676;SDS011;18385;51.572;6.578;2023-05-07T01:57:34;13.45;;;8.73;;
31676;SDS011;18385;51.572;6.578;2023-05-07T02:00:00;11.63;;;9.18;;
31676;SDS011;18385;51.572;6.578;2023-05-07T02:02:28;11.20;;;8.05;;
31676;SDS011;18385;51.572;6.578;2023-05-07T02:04:56;9.80;;;7.18;;
31676;SDS011;18385;51.572;6.578;2023-05-07T02:07:22;11.48;;;7.85;;
31676;SDS011;18385;51.572;6.578;2023-05-07T02:09:48;12.10;;;8.90;;
31676;SDS011;18385;51.572;6.578;2023-05-07T02:12:14;10.00;;;7.68;;
31676;SDS011;18385;51.572;6.578;2023-05-07T02:14:40;10.05;;;8.38;;
31676;SDS011;18385;51.572;6.578;2023-05-07T02:17:06;15.10;;;8.65;;
31676;SDS011;18385;51.572;6.578;2023-05-07T02:19:32;12.68;;;8.85;;
31676;SDS011;18385;51.572;6.578;2023-05-07T02:21:57;14.80;;;9.60;;
31676;SDS011;18385;51.572;6.578;2023-05-07T02:24:28;12.73;;;8.63;;
31676;SDS011;18385;51.572;6.578;2023-05-07T02:26:55;12.60;;;9.40;;
31676;SDS011;18385;51.572;6.578;2023-05-07T02:29:21;16.13;;;10.55;;
31676;SDS011;18385;51.572;6.578;2023-05-07T02:31:46;13.00;;;10.13;;
31676;SDS011;18385;51.572;6.578;2023-05-07T02:34:16;12.57;;;9.52;;
31676;SDS011;18385;51.572;6.578;2023-05-07T02:36:42;14.32;;;10.38;;
31676;SDS011;18385;51.572;6.578;2023-05-07T02:39:11;17.58;;;10.85;;
31676;SDS011;18385;51.572;6.578;2023-05-07T02:41:38;16.58;;;10.25;;
31676;SDS011;18385;51.572;6.578;2023-05-07T02:44:04;15.32;;;10.65;;
31676;SDS011;18385;51.572;6.578;2023-05-07T02:46:30;14.68;;;10.95;;
31676;SDS011;18385;51.572;6.578;2023-05-07T02:49:01;15.07;;;10.38;;
31676;SDS011;18385;51.572;6.578;2023-05-07T02:51:27;15.88;;;10.43;;
31676;SDS011;18385;51.572;6.578;2023-05-07T02:53:55;17.67;;;12.20;;
31676;SDS011;18385;51.572;6.578;2023-05-07T02:56:21;15.95;;;10.32;;
31676;SDS011;18385;51.572;6.578;2023-05-07T02:58:46;15.25;;;10.93;;
31676;SDS011;18385;51.572;6.578;2023-05-07T03:01:13;14.73;;;10.35;;
31676;SDS011;18385;51.572;6.578;2023-05-07T03:03:52;15.77;;;10.95;;
31676;SDS011;18385;51.572;6.578;2023-05-07T03:06:17;20.50;;;11.65;;
31676;SDS011;18385;51.572;6.578;2023-05-07T03:08:43;18.17;;;12.00;;
31676;SDS011;18385;51.572;6.578;2023-05-07T03:11:09;17.73;;;11.20;;
31676;SDS011;18385;51.572;6.578;2023-05-07T03:13:35;18.38;;;11.85;;
31676;SDS011;18385;51.572;6.578;2023-05-07T03:16:00;15.35;;;10.95;;
31676;SDS011;18385;51.572;6.578;2023-05-07T03:18:26;21.65;;;12.20;;
31676;SDS011;18385;51.572;6.578;2023-05-07T03:20:52;15.20;;;10.85;;
31676;SDS011;18385;51.572;6.578;2023-05-07T03:23:18;18.20;;;12.38;;
31676;SDS011;18385;51.572;6.578;2023-05-07T03:25:44;20.45;;;12.18;;
31676;SDS011;18385;51.572;6.578;2023-05-07T03:28:09;17.75;;;11.35;;
31676;SDS011;18385;51.572;6.578;2023-05-07T03:30:41;15.50;;;11.93;;
31676;SDS011;18385;51.572;6.578;2023-05-07T03:33:06;18.77;;;12.73;;
31676;SDS011;18385;51.572;6.578;2023-05-07T03:35:32;14.38;;;10.52;;
31676;SDS011;18385;51.572;6.578;2023-05-07T03:37:58;18.58;;;13.25;;
31676;SDS011;18385;51.572;6.578;2023-05-07T03:40:25;19.42;;;11.88;;
31676;SDS011;18385;51.572;6.578;2023-05-07T03:42:53;19.48;;;12.70;;
31676;SDS011;18385;51.572;6.578;2023-05-07T03:45:22;21.13;;;12.45;;
31676;SDS011;18385;51.572;6.578;2023-05-07T03:47:57;19.85;;;12.55;;
31676;SDS011;18385;51.572;6.578;2023-05-07T03:50:22;19.48;;;12.85;;
31676;SDS011;18385;51.572;6.578;2023-05-07T03:52:48;19.95;;;14.05;;
31676;SDS011;18385;51.572;6.578;2023-05-07T03:55:17;20.15;;;13.40;;
31676;SDS011;18385;51.572;6.578;2023-05-07T03:57:48;20.45;;;13.20;;
31676;SDS011;18385;51.572;6.578;2023-05-07T04:00:14;18.55;;;12.52;;
31676;SDS011;18385;51.572;6.578;2023-05-07T04:02:48;19.20;;;13.00;;
31676;SDS011;18385;51.572;6.578;2023-05-07T04:05:19;20.70;;;13.70;;
31676;SDS011;18385;51.572;6.578;2023-05-07T04:07:48;19.50;;;13.73;;
31676;SDS011;18385;51.572;6.578;2023-05-07T04:10:18;22.77;;;14.48;;
31676;SDS011;18385;51.572;6.578;2023-05-07T04:12:46;21.70;;;14.30;;
31676;SDS011;18385;51.572;6.578;2023-05-07T04:15:16;21.17;;;13.45;;
31676;SDS011;18385;51.572;6.578;2023-05-07T04:17:42;24.80;;;15.88;;
31676;SDS011;18385;51.572;6.578;2023-05-07T04:20:09;19.90;;;13.98;;
31676;SDS011;18385;51.572;6.578;2023-05-07T04:22:39;22.63;;;14.13;;
31676;SDS011;18385;51.572;6.578;2023-05-07T04:25:05;25.35;;;13.57;;
31676;SDS011;18385;51.572;6.578;2023-05-07T04:27:34;19.85;;;13.38;;
31676;SDS011;18385;51.572;6.578;2023-05-07T04:30:01;19.88;;;12.80;;
31676;SDS011;18385;51.572;6.578;2023-05-07T04:32:30;21.67;;;14.18;;
31676;SDS011;18385;51.572;6.578;2023-05-07T04:34:56;22.90;;;13.98;;
31676;SDS011;18385;51.572;6.578;2023-05-07T04:37:22;19.92;;;13.18;;
31676;SDS011;18385;51.572;6.578;2023-05-07T04:39:48;18.55;;;12.05;;
31676;SDS011;18385;51.572;6.578;2023-05-07T04:42:14;20.58;;;13.70;;
31676;SDS011;18385;51.572;6.578;2023-05-07T04:44:40;21.33;;;13.20;;
31676;SDS011;18385;51.572;6.578;2023-05-07T04:47:06;20.15;;;12.73;;
31676;SDS011;18385;51.572;6.578;2023-05-07T04:49:32;24.73;;;14.07;;
31676;SDS011;18385;51.572;6.578;2023-05-07T04:51:58;22.85;;;15.13;;
31676;SDS011;18385;51.572;6.578;2023-05-07T04:54:23;20.73;;;13.38;;
31676;SDS011;18385;51.572;6.578;2023-05-07T04:56:50;20.63;;;13.43;;
31676;SDS011;18385;51.572;6.578;2023-05-07T04:59:16;25.23;;;16.27;;
31676;SDS011;18385;51.572;6.578;2023-05-07T05:01:41;24.17;;;15.82;;
31676;SDS011;18385;51.572;6.578;2023-05-07T05:04:07;24.95;;;17.08;;
31676;SDS011;18385;51.572;6.578;2023-05-07T05:06:33;26.40;;;16.00;;
31676;SDS011;18385;51.572;6.578;2023-05-07T05:09:01;22.52;;;15.25;;
31676;SDS011;18385;51.572;6.578;2023-05-07T05:11:29;22.73;;;14.88;;
31676;SDS011;18385;51.572;6.578;2023-05-07T05:13:54;24.23;;;16.08;;
31676;SDS011;18385;51.572;6.578;2023-05-07T05:16:20;25.20;;;15.50;;
31676;SDS011;18385;51.572;6.578;2023-05-07T05:18:47;25.38;;;15.85;;
31676;SDS011;18385;51.572;6.578;2023-05-07T05:21:15;22.50;;;14.83;;
31676;SDS011;18385;51.572;6.578;2023-05-07T05:23:44;23.48;;;16.27;;
31676;SDS011;18385;51.572;6.578;2023-05-07T05:26:11;23.40;;;15.57;;
31676;SDS011;18385;51.572;6.578;2023-05-07T05:28:36;20.67;;;13.88;;
31676;SDS011;18385;51.572;6.578;2023-05-07T05:31:03;23.00;;;15.05;;
31676;SDS011;18385;51.572;6.578;2023-05-07T05:33:33;20.65;;;13.55;;
31676;SDS011;18385;51.572;6.578;2023-05-07T05:36:02;20.92;;;13.75;;
31676;SDS011;18385;51.572;6.578;2023-05-07T05:38:28;21.25;;;14.63;;
31676;SDS011;18385;51.572;6.578;2023-05-07T05:40:54;21.95;;;13.23;;
31676;SDS011;18385;51.572;6.578;2023-05-07T05:43:20;19.75;;;12.48;;
31676;SDS011;18385;51.572;6.578;2023-05-07T05:45:46;20.17;;;13.18;;
31676;SDS011;18385;51.572;6.578;2023-05-07T05:48:12;20.27;;;12.07;;
31676;SDS011;18385;51.572;6.578;2023-05-07T05:50:38;17.95;;;11.60;;
31676;SDS011;18385;51.572;6.578;2023-05-07T05:53:05;17.92;;;12.30;;
31676;SDS011;18385;51.572;6.578;2023-05-07T05:55:31;18.50;;;12.02;;
31676;SDS011;18385;51.572;6.578;2023-05-07T05:57:58;16.52;;;10.70;;
31676;SDS011;18385;51.572;6.578;2023-05-07T06:00:25;16.30;;;11.05;;
31676;SDS011;18385;51.572;6.578;2023-05-07T06:02:59;14.95;;;9.57;;
31676;SDS011;18385;51.572;6.578;2023-05-07T06:05:26;14.52;;;9.98;;
31676;SDS011;18385;51.572;6.578;2023-05-07T06:07:54;16.20;;;9.70;;
31676;SDS011;18385;51.572;6.578;2023-05-07T06:10:21;13.60;;;9.63;;
31676;SDS011;18385;51.572;6.578;2023-05-07T06:12:46;15.98;;;9.75;;
31676;SDS011;18385;51.572;6.578;2023-05-07T06:15:12;15.18;;;9.73;;
31676;SDS011;18385;51.572;6.578;2023-05-07T06:17:39;15.35;;;9.45;;
31676;SDS011;18385;51.572;6.578;2023-05-07T06:20:06;15.98;;;10.07;;
31676;SDS011;18385;51.572;6.578;2023-05-07T06:22:32;15.85;;;9.50;;
31676;SDS011;18385;51.572;6.578;2023-05-07T06:24:58;13.60;;;9.10;;
31676;SDS011;18385;51.572;6.578;2023-05-07T06:27:25;12.80;;;9.70;;
31676;SDS011;18385;51.572;6.578;2023-05-07T06:29:51;16.08;;;8.90;;
31676;SDS011;18385;51.572;6.578;2023-05-07T06:32:17;15.77;;;8.90;;
31676;SDS011;18385;51.572;6.578;2023-05-07T06:34:45;14.40;;;8.77;;
31676;SDS011;18385;51.572;6.578;2023-05-07T06:37:12;11.25;;;7.97;;
31676;SDS011;18385;51.572;6.578;2023-05-07T06:40:06;13.32;;;7.90;;
31676;SDS011;18385;51.572;6.578;2023-05-07T06:42:35;10.60;;;7.60;;
31676;SDS011;18385;51.572;6.578;2023-05-07T06:45:20;10.82;;;6.70;;
31676;SDS011;18385;51.572;6.578;2023-05-07T06:47:46;13.93;;;7.50;;
31676;SDS011;18385;51.572;6.578;2023-05-07T06:50:11;9.80;;;7.47;;
31676;SDS011;18385;51.572;6.578;2023-05-07T06:52:38;10.55;;;6.97;;
31676;SDS011;18385;51.572;6.578;2023-05-07T06:55:05;9.82;;;6.30;;
31676;SDS011;18385;51.572;6.578;2023-05-07T06:57:31;11.10;;;6.30;;
31676;SDS011;18385;51.572;6.578;2023-05-07T06:59:57;11.05;;;6.43;;
31676;SDS011;18385;51.572;6.578;2023-05-07T07:02:22;7.93;;;5.30;;
31676;SDS011;18385;51.572;6.578;2023-05-07T07:04:49;10.25;;;5.90;;
31676;SDS011;18385;51.572;6.578;2023-05-07T07:07:15;8.73;;;6.07;;
31676;SDS011;18385;51.572;6.578;2023-05-07T07:09:43;8.47;;;5.70;;
31676;SDS011;18385;51.572;6.578;2023-05-07T07:12:09;9.10;;;6.32;;
31676;SDS011;18385;51.572;6.578;2023-05-07T07:14:38;10.50;;;6.07;;
31676;SDS011;18385;51.572;6.578;2023-05-07T07:17:03;10.60;;;6.75;;
31676;SDS011;18385;51.572;6.578;2023-05-07T07:19:30;9.77;;;5.85;;
31676;SDS011;18385;51.572;6.578;2023-05-07T07:21:57;8.50;;;6.40;;
31676;SDS011;18385;51.572;6.578;2023-05-07T07:24:22;9.98;;;5.70;;
31676;SDS011;18385;51.572;6.578;2023-05-07T07:26:53;9.50;;;5.28;;
31676;SDS011;18385;51.572;6.578;2023-05-07T07:29:20;7.40;;;5.13;;
31676;SDS011;18385;51.572;6.578;2023-05-07T07:31:47;6.80;;;4.68;;
31676;SDS011;18385;51.572;6.578;2023-05-07T07:34:15;7.30;;;4.30;;
31676;SDS011;18385;51.572;6.578;2023-05-07T07:36:41;7.30;;;4.32;;
31676;SDS011;18385;51.572;6.578;2023-05-07T07:39:07;4.95;;;4.22;;
31676;SDS011;18385;51.572;6.578;2023-05-07T07:41:33;7.90;;;4.13;;
31676;SDS011;18385;51.572;6.578;2023-05-07T07:43:59;6.32;;;3.92;;
31676;SDS011;18385;51.572;6.578;2023-05-07T07:46:25;5.57;;;3.60;;
31676;SDS011;18385;51.572;6.578;2023-05-07T07:48:52;6.40;;;3.67;;
31676;SDS011;18385;51.572;6.578;2023-05-07T07:51:17;6.80;;;3.65;;
31676;SDS011;18385;51.572;6.578;2023-05-07T07:53:43;6.10;;;4.05;;
31676;SDS011;18385;51.572;6.578;2023-05-07T07:56:09;5.07;;;3.20;;
31676;SDS011;18385;51.572;6.578;2023-05-07T07:58:35;6.03;;;3.78;;
31676;SDS011;18385;51.572;6.578;2023-05-07T08:01:02;5.78;;;2.90;;
31676;SDS011;18385;51.572;6.578;2023-05-07T08:03:28;6.13;;;2.78;;
31676;SDS011;18385;51.572;6.578;2023-05-07T08:05:57;4.78;;;2.63;;
31676;SDS011;18385;51.572;6.578;2023-05-07T08:08:24;3.67;;;2.05;;
31676;SDS011;18385;51.572;6.578;2023-05-07T08:10:51;3.72;;;2.40;;
31676;SDS011;18385;51.572;6.578;2023-05-07T08:13:27;4.35;;;2.00;;
31676;SDS011;18385;51.572;6.578;2023-05-07T08:15:53;3.97;;;2.00;;
31676;SDS011;18385;51.572;6.578;2023-05-07T08:18:18;3.55;;;2.17;;
31676;SDS011;18385;51.572;6.578;2023-05-07T08:20:44;7.18;;;2.08;;
31676;SDS011;18385;51.572;6.578;2023-05-07T08:23:14;4.47;;;2.22;;
31676;SDS011;18385;51.572;6.578;2023-05-07T08:25:41;5.60;;;2.25;;
31676;SDS011;18385;51.572;6.578;2023-05-07T08:28:08;4.68;;;2.17;;
31676;SDS011;18385;51.572;6.578;2023-05-07T08:30:33;4.25;;;1.83;;
31676;SDS011;18385;51.572;6.578;2023-05-07T08:33:00;3.30;;;1.85;;
31676;SDS011;18385;51.572;6.578;2023-05-07T08:35:25;4.57;;;2.00;;
31676;SDS011;18385;51.572;6.578;2023-05-07T08:37:52;4.10;;;1.98;;
31676;SDS011;18385;51.572;6.578;2023-05-07T08:40:19;5.85;;;2.45;;
31676;SDS011;18385;51.572;6.578;2023-05-07T08:42:48;4.90;;;1.95;;
31676;SDS011;18385;51.572;6.578;2023-05-07T08:45:15;5.47;;;2.55;;
31676;SDS011;18385;51.572;6.578;2023-05-07T08:47:44;5.00;;;2.17;;
31676;SDS011;18385;51.572;6.578;2023-05-07T08:52:41;4.28;;;1.95;;
31676;SDS011;18385;51.572;6.578;2023-05-07T08:57:34;6.35;;;2.40;;
31676;SDS011;18385;51.572;6.578;2023-05-07T09:00:02;5.85;;;2.17;;
31676;SDS011;18385;51.572;6.578;2023-05-07T09:02:30;4.78;;;2.20;;
31676;SDS011;18385;51.572;6.578;2023-05-07T09:04:56;7.30;;;1.95;;
31676;SDS011;18385;51.572;6.578;2023-05-07T09:07:22;6.65;;;2.83;;
31676;SDS011;18385;51.572;6.578;2023-05-07T09:09:47;6.15;;;2.33;;
31676;SDS011;18385;51.572;6.578;2023-05-07T09:12:13;4.22;;;2.33;;
31676;SDS011;18385;51.572;6.578;2023-05-07T09:14:40;4.00;;;2.03;;
31676;SDS011;18385;51.572;6.578;2023-05-07T09:17:06;5.15;;;2.15;;
31676;SDS011;18385;51.572;6.578;2023-05-07T09:19:32;3.47;;;2.13;;
31676;SDS011;18385;51.572;6.578;2023-05-07T09:22:05;4.25;;;2.72;;
31676;SDS011;18385;51.572;6.578;2023-05-07T09:24:49;5.03;;;2.33;;
31676;SDS011;18385;51.572;6.578;2023-05-07T09:27:17;5.40;;;3.17;;
31676;SDS011;18385;51.572;6.578;2023-05-07T09:29:44;8.25;;;3.28;;
31676;SDS011;18385;51.572;6.578;2023-05-07T09:32:10;7.20;;;3.30;;
31676;SDS011;18385;51.572;6.578;2023-05-07T09:34:36;7.45;;;3.22;;
31676;SDS011;18385;51.572;6.578;2023-05-07T09:37:02;7.07;;;3.47;;
31676;SDS011;18385;51.572;6.578;2023-05-07T09:39:42;4.85;;;2.78;;
31676;SDS011;18385;51.572;6.578;2023-05-07T09:42:09;5.28;;;2.78;;
31676;SDS011;18385;51.572;6.578;2023-05-07T09:44:37;5.45;;;2.92;;
31676;SDS011;18385;51.572;6.578;2023-05-07T09:47:07;4.05;;;2.13;;
31676;SDS011;18385;51.572;6.578;2023-05-07T09:49:39;4.25;;;2.20;;
31676;SDS011;18385;51.572;6.578;2023-05-07T09:52:10;5.68;;;1.95;;
31676;SDS011;18385;51.572;6.578;2023-05-07T09:54:43;5.85;;;2.00;;
31676;SDS011;18385;51.572;6.578;2023-05-07T09:57:12;3.00;;;1.90;;
31676;SDS011;18385;51.572;6.578;2023-05-07T09:59:42;4.53;;;2.30;;
31676;SDS011;18385;51.572;6.578;2023-05-07T10:04:44;2.97;;;2.08;;
31676;SDS011;18385;51.572;6.578;2023-05-07T10:07:13;3.05;;;2.13;;
31676;SDS011;18385;51.572;6.578;2023-05-07T10:09:39;3.78;;;1.77;;
31676;SDS011;18385;51.572;6.578;2023-05-07T10:12:13;3.80;;;2.10;;
31676;SDS011;18385;51.572;6.578;2023-05-07T10:14:39;5.28;;;2.00;;
31676;SDS011;18385;51.572;6.578;2023-05-07T10:17:07;4.18;;;1.90;;
31676;SDS011;18385;51.572;6.578;2023-05-07T10:19:34;5.05;;;2.35;;
31676;SDS011;18385;51.572;6.578;2023-05-07T10:22:05;3.55;;;1.70;;
31676;SDS011;18385;51.572;6.578;2023-05-07T10:24:35;3.30;;;1.27;;
31676;SDS011;18385;51.572;6.578;2023-05-07T10:27:05;3.30;;;1.92;;
31676;SDS011;18385;51.572;6.578;2023-05-07T10:35:02;2.72;;;2.05;;
31676;SDS011;18385;51.572;6.578;2023-05-07T10:37:30;2.63;;;1.88;;
31676;SDS011;18385;51.572;6.578;2023-05-07T10:39:56;3.33;;;2.00;;
31676;SDS011;18385;51.572;6.578;2023-05-07T10:42:24;4.45;;;1.90;;
31676;SDS011;18385;51.572;6.578;2023-05-07T10:44:52;5.15;;;1.98;;
31676;SDS011;18385;51.572;6.578;2023-05-07T10:47:25;3.92;;;1.80;;
31676;SDS011;18385;51.572;6.578;2023-05-07T10:52:32;3.35;;;1.83;;
31676;SDS011;18385;51.572;6.578;2023-05-07T10:57:41;4.13;;;1.70;;
31676;SDS011;18385;51.572;6.578;2023-05-07T11:05:31;3.78;;;1.13;;
31676;SDS011;18385;51.572;6.578;2023-05-07T11:08:07;6.68;;;1.13;;
31676;SDS011;18385;51.572;6.578;2023-05-07T11:10:51;2.28;;;1.15;;
31676;SDS011;18385;51.572;6.578;2023-05-07T11:16:23;4.70;;;1.48;;
31676;SDS011;18385;51.572;6.578;2023-05-07T11:18:58;2.20;;;1.00;;
31676;SDS011;18385;51.572;6.578;2023-05-07T11:21:37;5.40;;;0.82;;
31676;SDS011;18385;51.572;6.578;2023-05-07T11:24:38;2.05;;;0.85;;
31676;SDS011;18385;51.572;6.578;2023-05-07T11:27:06;2.15;;;0.73;;
31676;SDS011;18385;51.572;6.578;2023-05-07T11:29:32;1.60;;;0.90;;
31676;SDS011;18385;51.572;6.578;2023-05-07T11:32:05;3.53;;;1.30;;
31676;SDS011;18385;51.572;6.578;2023-05-07T11:34:40;4.22;;;1.27;;
31676;SDS011;18385;51.572;6.578;2023-05-07T11:37:06;1.55;;;0.95;;
31676;SDS011;18385;51.572;6.578;2023-05-07T11:40:03;2.70;;;1.23;;
31676;SDS011;18385;51.572;6.578;2023-05-07T11:42:38;1.13;;;0.65;;
31676;SDS011;18385;51.572;6.578;2023-05-07T11:45:08;2.97;;;1.00;;
31676;SDS011;18385;51.572;6.578;2023-05-07T11:47:34;2.05;;;0.80;;
31676;SDS011;18385;51.572;6.578;2023-05-07T11:50:04;3.63;;;1.40;;
31676;SDS011;18385;51.572;6.578;2023-05-07T11:52:32;3.38;;;1.00;;
31676;SDS011;18385;51.572;6.578;2023-05-07T11:54:59;1.17;;;0.80;;
31676;SDS011;18385;51.572;6.578;2023-05-07T11:57:26;2.78;;;0.68;;
31676;SDS011;18385;51.572;6.578;2023-05-07T11:59:54;1.95;;;0.73;;
31676;SDS011;18385;51.572;6.578;2023-05-07T12:02:20;1.60;;;0.70;;
31676;SDS011;18385;51.572;6.578;2023-05-07T12:04:46;3.78;;;1.05;;
31676;SDS011;18385;51.572;6.578;2023-05-07T12:07:12;3.13;;;1.35;;
31676;SDS011;18385;51.572;6.578;2023-05-07T12:09:41;2.17;;;0.90;;
31676;SDS011;18385;51.572;6.578;2023-05-07T12:12:08;2.33;;;1.00;;
31676;SDS011;18385;51.572;6.578;2023-05-07T12:14:40;1.65;;;0.80;;
31676;SDS011;18385;51.572;6.578;2023-05-07T12:17:07;2.22;;;0.88;;
31676;SDS011;18385;51.572;6.578;2023-05-07T12:19:33;2.10;;;1.00;;
31676;SDS011;18385;51.572;6.578;2023-05-07T12:22:03;3.60;;;0.82;;
31676;SDS011;18385;51.572;6.578;2023-05-07T12:24:42;2.67;;;0.80;;
31676;SDS011;18385;51.572;6.578;2023-05-07T12:27:21;2.75;;;1.00;;
31676;SDS011;18385;51.572;6.578;2023-05-07T12:29:47;2.83;;;1.40;;
31676;SDS011;18385;51.572;6.578;2023-05-07T12:32:15;1.67;;;1.02;;
31676;SDS011;18385;51.572;6.578;2023-05-07T12:34:50;3.58;;;1.30;;
31676;SDS011;18385;51.572;6.578;2023-05-07T12:37:22;2.80;;;1.20;;
31676;SDS011;18385;51.572;6.578;2023-05-07T12:40:04;3.42;;;1.20;;
31676;SDS011;18385;51.572;6.578;2023-05-07T12:42:35;1.83;;;1.00;;
31676;SDS011;18385;51.572;6.578;2023-05-07T12:45:10;3.28;;;1.48;;
31676;SDS011;18385;51.572;6.578;2023-05-07T12:47:37;2.42;;;1.00;;
31676;SDS011;18385;51.572;6.578;2023-05-07T12:50:06;3.03;;;1.35;;
31676;SDS011;18385;51.572;6.578;2023-05-07T12:52:32;2.17;;;1.50;;
31676;SDS011;18385;51.572;6.578;2023-05-07T12:55:04;2.90;;;1.27;;
31676;SDS011;18385;51.572;6.578;2023-05-07T12:57:37;4.15;;;1.50;;
31676;SDS011;18385;51.572;6.578;2023-05-07T13:00:04;2.25;;;1.40;;
31676;SDS011;18385;51.572;6.578;2023-05-07T13:02:34;3.42;;;1.20;;
31676;SDS011;18385;51.572;6.578;2023-05-07T13:05:04;3.30;;;1.15;;
31676;SDS011;18385;51.572;6.578;2023-05-07T13:07:30;5.40;;;1.42;;
31676;SDS011;18385;51.572;6.578;2023-05-07T13:09:55;3.97;;;1.50;;
31676;SDS011;18385;51.572;6.578;2023-05-07T13:12:21;2.45;;;1.20;;
31676;SDS011;18385;51.572;6.578;2023-05-07T13:14:46;2.03;;;1.10;;
31676;SDS011;18385;51.572;6.578;2023-05-07T13:17:12;4.47;;;1.92;;
31676;SDS011;18385;51.572;6.578;2023-05-07T13:19:38;3.55;;;1.00;;
31676;SDS011;18385;51.572;6.578;2023-05-07T13:22:04;1.67;;;1.30;;
31676;SDS011;18385;51.572;6.578;2023-05-07T13:24:29;4.03;;;1.00;;
31676;SDS011;18385;51.572;6.578;2023-05-07T13:26:55;3.60;;;1.33;;
31676;SDS011;18385;51.572;6.578;2023-05-07T13:29:21;2.55;;;1.20;;
31676;SDS011;18385;51.572;6.578;2023-05-07T13:31:53;3.53;;;1.42;;
31676;SDS011;18385;51.572;6.578;2023-05-07T13:34:19;3.20;;;1.52;;
31676;SDS011;18385;51.572;6.578;2023-05-07T13:36:45;1.98;;;1.40;;
31676;SDS011;18385;51.572;6.578;2023-05-07T13:39:11;3.55;;;1.52;;
31676;SDS011;18385;51.572;6.578;2023-05-07T13:41:36;3.58;;;1.20;;
31676;SDS011;18385;51.572;6.578;2023-05-07T13:44:02;4.47;;;2.40;;
31676;SDS011;18385;51.572;6.578;2023-05-07T13:46:28;1.98;;;1.40;;
31676;SDS011;18385;51.572;6.578;2023-05-07T13:48:54;3.40;;;1.63;;
31676;SDS011;18385;51.572;6.578;2023-05-07T13:51:20;2.95;;;1.50;;
31676;SDS011;18385;51.572;6.578;2023-05-07T13:53:46;4.55;;;1.98;;
31676;SDS011;18385;51.572;6.578;2023-05-07T13:56:12;3.67;;;2.28;;
31676;SDS011;18385;51.572;6.578;2023-05-07T13:58:39;4.88;;;2.25;;
31676;SDS011;18385;51.572;6.578;2023-05-07T14:01:05;4.72;;;2.17;;
31676;SDS011;18385;51.572;6.578;2023-05-07T14:03:31;3.92;;;2.25;;
31676;SDS011;18385;51.572;6.578;2023-05-07T14:05:58;3.85;;;2.70;;
31676;SDS011;18385;51.572;6.578;2023-05-07T14:08:25;8.27;;;3.47;;
31676;SDS011;18385;51.572;6.578;2023-05-07T14:10:51;4.95;;;2.72;;
31676;SDS011;18385;51.572;6.578;2023-05-07T14:13:17;4.03;;;2.40;;
31676;SDS011;18385;51.572;6.578;2023-05-07T14:15:42;4.18;;;2.70;;
31676;SDS011;18385;51.572;6.578;2023-05-07T14:18:13;6.88;;;2.92;;
31676;SDS011;18385;51.572;6.578;2023-05-07T14:20:39;4.18;;;2.75;;
31676;SDS011;18385;51.572;6.578;2023-05-07T14:23:05;6.35;;;3.60;;
31676;SDS011;18385;51.572;6.578;2023-05-07T14:25:31;4.28;;;2.70;;
31676;SDS011;18385;51.572;6.578;2023-05-07T14:27:57;5.18;;;2.92;;
31676;SDS011;18385;51.572;6.578;2023-05-07T14:30:23;7.60;;;3.70;;
31676;SDS011;18385;51.572;6.578;2023-05-07T14:32:49;6.18;;;3.30;;
31676;SDS011;18385;51.572;6.578;2023-05-07T14:35:15;4.68;;;3.13;;
31676;SDS011;18385;51.572;6.578;2023-05-07T14:37:41;6.40;;;3.60;;
31676;SDS011;18385;51.572;6.578;2023-05-07T14:40:07;5.22;;;3.05;;
31676;SDS011;18385;51.572;6.578;2023-05-07T14:42:33;5.78;;;3.25;;
31676;SDS011;18385;51.572;6.578;2023-05-07T14:44:59;6.10;;;3.28;;
31676;SDS011;18385;51.572;6.578;2023-05-07T14:47:25;6.70;;;3.45;;
31676;SDS011;18385;51.572;6.578;2023-05-07T14:49:50;6.00;;;3.50;;
31676;SDS011;18385;51.572;6.578;2023-05-07T14:52:16;5.15;;;3.28;;
31676;SDS011;18385;51.572;6.578;2023-05-07T14:54:42;6.68;;;3.92;;
31676;SDS011;18385;51.572;6.578;2023-05-07T14:57:08;6.95;;;3.60;;
31676;SDS011;18385;51.572;6.578;2023-05-07T14:59:35;5.65;;;3.72;;
31676;SDS011;18385;51.572;6.578;2023-05-07T15:02:02;8.43;;;4.38;;
31676;SDS011;18385;51.572;6.578;2023-05-07T15:04:29;6.13;;;3.60;;
31676;SDS011;18385;51.572;6.578;2023-05-07T15:06:55;5.45;;;3.83;;